This is the latest recevied weather packets stored in our database for station/object IW4EMA-3. If no packets are shown the sender has not sent any weather packets the latest 10 day(s).
| Time | Temp. | Humidity | Pressure | Rain* | Wind** | Luminosity | Snow |
|---|---|---|---|---|---|---|---|
| 1777503819 | 13.33° C | 89% | 1020.3 hPa | 0 mm | - | 0 W/m² | - |
| 1777498407 | 13.89° C | 91% | 1019.5 hPa | 0 mm | - | 0 W/m² | - |
| 1777494199 | 15.56° C | 78% | 1018.5 hPa | 0 mm | - | 0 W/m² | - |
| 1777491207 | 16.11° C | 74% | 1018 hPa | 0 mm | - | 0 W/m² | - |
| 1777488199 | 16.67° C | 71% | 1017.3 hPa | 0 mm | - | 0 W/m² | - |
| 1777487626 | 16.67° C | 69% | 1017.2 hPa | 0 mm | - | 0 W/m² | - |
| 1777485800 | 17.22° C | 68% | 1016.9 hPa | 0 mm | - | 7 W/m² | - |
| 1777485207 | 17.22° C | 67% | 1016.6 hPa | 0 mm | - | 13 W/m² | - |
| 1777484600 | 17.78° C | 66% | 1016.6 hPa | 0 mm | - | 17 W/m² | - |
| 1777484013 | 17.78° C | 65% | 1016.5 hPa | 0 mm | - | 29 W/m² | - |
| 1777466048 | 22.22° C | 52% | 1015.9 hPa | 0 mm | - | 591 W/m² | - |
| 1777462408 | 22.22° C | 55% | 1015.9 hPa | 0 mm | - | 352 W/m² | - |
| 1777460007 | 22.22° C | 59% | 1016.1 hPa | 0 mm | - | 387 W/m² | - |
| 1777458807 | 22.78° C | 59% | 1016 hPa | 0 mm | - | 396 W/m² | - |
| 1777457039 | 21.67° C | 62% | 1016.1 hPa | 0 mm | - | 268 W/m² | - |
| 1777456407 | 21.67° C | 61% | 1016.1 hPa | 0 mm | - | 564 W/m² | - |
| 1777449800 | 20° C | 73% | 1016 hPa | 0 mm | - | 270 W/m² | - |
| 1777445608 | 17.78° C | 80% | 1015.9 hPa | 0 mm | - | 253 W/m² | - |
| 1777441399 | 14.44° C | 90% | 1015.2 hPa | 0 mm | - | 93 W/m² | - |
| 1777437208 | 12.78° C | 93% | 1015.1 hPa | 0 mm | - | 13 W/m² | - |
| 1777434828 | 13.89° C | 90% | 1015 hPa | 0 mm | - | 0 W/m² | - |
| 1777432409 | 14.44° C | 91% | 1015 hPa | 0 mm | - | 0 W/m² | - |
| 1777427608 | 15° C | 91% | 1015.1 hPa | 0 mm | - | 0 W/m² | - |
| 1777419801 | 15° C | 84% | 1014.7 hPa | 0 mm | - | 0 W/m² | - |
| 1777418601 | 15° C | 81% | 1015.1 hPa | 0 mm | - | 0 W/m² | - |
* Rain latest hour (hover to see other rain measurements)
** Current wind speed in m/s (hover to see current wind gust speed)